sensor_id;sensor_type;location;lat;lon;timestamp;P1;durP1;ratioP1;P2;durP2;ratioP2
75441;SDS011;64019;48.312;14.226;2023-02-28T00:00:17;13.80;;;4.97;;
75441;SDS011;64019;48.312;14.226;2023-02-28T00:02:43;13.60;;;5.47;;
75441;SDS011;64019;48.312;14.226;2023-02-28T00:05:09;11.20;;;4.90;;
75441;SDS011;64019;48.312;14.226;2023-02-28T00:07:37;10.93;;;5.90;;
75441;SDS011;64019;48.312;14.226;2023-02-28T00:10:04;10.23;;;5.57;;
75441;SDS011;64019;48.312;14.226;2023-02-28T00:12:31;10.17;;;5.17;;
75441;SDS011;64019;48.312;14.226;2023-02-28T00:14:57;13.67;;;5.47;;
75441;SDS011;64019;48.312;14.226;2023-02-28T00:17:23;11.80;;;5.33;;
75441;SDS011;64019;48.312;14.226;2023-02-28T00:19:48;10.33;;;5.40;;
75441;SDS011;64019;48.312;14.226;2023-02-28T00:22:16;10.60;;;5.40;;
75441;SDS011;64019;48.312;14.226;2023-02-28T00:24:42;15.50;;;5.87;;
75441;SDS011;64019;48.312;14.226;2023-02-28T00:27:08;12.57;;;5.30;;
75441;SDS011;64019;48.312;14.226;2023-02-28T00:29:34;9.67;;;5.23;;
75441;SDS011;64019;48.312;14.226;2023-02-28T00:32:00;15.37;;;6.33;;
75441;SDS011;64019;48.312;14.226;2023-02-28T00:34:25;12.20;;;6.03;;
75441;SDS011;64019;48.312;14.226;2023-02-28T00:36:51;12.50;;;5.70;;
75441;SDS011;64019;48.312;14.226;2023-02-28T00:39:17;12.70;;;5.83;;
75441;SDS011;64019;48.312;14.226;2023-02-28T00:41:42;10.03;;;5.63;;
75441;SDS011;64019;48.312;14.226;2023-02-28T00:44:08;12.20;;;5.87;;
75441;SDS011;64019;48.312;14.226;2023-02-28T00:46:34;10.27;;;5.73;;
75441;SDS011;64019;48.312;14.226;2023-02-28T00:49:00;13.73;;;6.10;;
75441;SDS011;64019;48.312;14.226;2023-02-28T00:51:25;12.00;;;6.13;;
75441;SDS011;64019;48.312;14.226;2023-02-28T00:53:51;10.83;;;5.53;;
75441;SDS011;64019;48.312;14.226;2023-02-28T00:56:17;15.27;;;6.23;;
75441;SDS011;64019;48.312;14.226;2023-02-28T00:58:42;12.17;;;6.33;;
75441;SDS011;64019;48.312;14.226;2023-02-28T01:01:08;13.93;;;6.40;;
75441;SDS011;64019;48.312;14.226;2023-02-28T01:03:34;15.77;;;5.80;;
75441;SDS011;64019;48.312;14.226;2023-02-28T01:05:59;12.67;;;6.67;;
75441;SDS011;64019;48.312;14.226;2023-02-28T01:08:25;10.80;;;6.47;;
75441;SDS011;64019;48.312;14.226;2023-02-28T01:10:51;12.50;;;7.17;;
75441;SDS011;64019;48.312;14.226;2023-02-28T01:13:17;11.43;;;6.20;;
75441;SDS011;64019;48.312;14.226;2023-02-28T01:15:54;13.03;;;6.40;;
75441;SDS011;64019;48.312;14.226;2023-02-28T01:18:21;14.77;;;6.30;;
75441;SDS011;64019;48.312;14.226;2023-02-28T01:20:48;15.37;;;7.27;;
75441;SDS011;64019;48.312;14.226;2023-02-28T01:23:14;18.60;;;6.90;;
75441;SDS011;64019;48.312;14.226;2023-02-28T01:25:39;15.47;;;6.40;;
75441;SDS011;64019;48.312;14.226;2023-02-28T01:28:05;12.77;;;6.57;;
75441;SDS011;64019;48.312;14.226;2023-02-28T01:30:31;12.90;;;6.60;;
75441;SDS011;64019;48.312;14.226;2023-02-28T01:32:57;11.30;;;6.13;;
75441;SDS011;64019;48.312;14.226;2023-02-28T01:35:23;14.03;;;6.57;;
75441;SDS011;64019;48.312;14.226;2023-02-28T01:37:49;12.67;;;6.70;;
75441;SDS011;64019;48.312;14.226;2023-02-28T01:40:14;14.83;;;7.10;;
75441;SDS011;64019;48.312;14.226;2023-02-28T01:42:40;12.93;;;6.70;;
75441;SDS011;64019;48.312;14.226;2023-02-28T01:45:14;13.13;;;5.87;;
75441;SDS011;64019;48.312;14.226;2023-02-28T01:47:57;17.53;;;6.73;;
75441;SDS011;64019;48.312;14.226;2023-02-28T01:50:27;16.53;;;6.50;;
75441;SDS011;64019;48.312;14.226;2023-02-28T01:52:56;21.33;;;7.03;;
75441;SDS011;64019;48.312;14.226;2023-02-28T01:55:26;12.57;;;6.77;;
75441;SDS011;64019;48.312;14.226;2023-02-28T01:57:58;16.50;;;6.97;;
75441;SDS011;64019;48.312;14.226;2023-02-28T02:00:27;13.83;;;6.77;;
75441;SDS011;64019;48.312;14.226;2023-02-28T02:02:58;15.43;;;6.73;;
75441;SDS011;64019;48.312;14.226;2023-02-28T02:05:26;15.40;;;6.50;;
75441;SDS011;64019;48.312;14.226;2023-02-28T02:07:56;12.43;;;7.03;;
75441;SDS011;64019;48.312;14.226;2023-02-28T02:10:31;14.53;;;6.50;;
75441;SDS011;64019;48.312;14.226;2023-02-28T02:18:36;15.87;;;6.93;;
75441;SDS011;64019;48.312;14.226;2023-02-28T02:41:58;17.00;;;7.40;;
75441;SDS011;64019;48.312;14.226;2023-02-28T02:44:44;13.23;;;6.40;;
75441;SDS011;64019;48.312;14.226;2023-02-28T02:47:16;11.50;;;5.77;;
75441;SDS011;64019;48.312;14.226;2023-02-28T02:49:54;13.93;;;6.50;;
75441;SDS011;64019;48.312;14.226;2023-02-28T02:52:23;11.73;;;5.90;;
75441;SDS011;64019;48.312;14.226;2023-02-28T02:54:54;13.47;;;6.37;;
75441;SDS011;64019;48.312;14.226;2023-02-28T02:57:27;11.73;;;6.77;;
75441;SDS011;64019;48.312;14.226;2023-02-28T02:59:58;12.17;;;6.03;;
75441;SDS011;64019;48.312;14.226;2023-02-28T03:02:25;12.87;;;6.13;;
75441;SDS011;64019;48.312;14.226;2023-02-28T03:04:54;14.47;;;6.40;;
75441;SDS011;64019;48.312;14.226;2023-02-28T03:07:25;10.67;;;6.03;;
75441;SDS011;64019;48.312;14.226;2023-02-28T03:09:52;12.10;;;5.77;;
75441;SDS011;64019;48.312;14.226;2023-02-28T03:12:23;14.00;;;6.77;;
75441;SDS011;64019;48.312;14.226;2023-02-28T03:15:08;13.40;;;5.67;;
75441;SDS011;64019;48.312;14.226;2023-02-28T03:17:55;10.87;;;5.93;;
75441;SDS011;64019;48.312;14.226;2023-02-28T03:20:48;12.93;;;6.67;;
75441;SDS011;64019;48.312;14.226;2023-02-28T03:23:38;17.27;;;6.77;;
75441;SDS011;64019;48.312;14.226;2023-02-28T03:26:20;13.20;;;6.27;;
75441;SDS011;64019;48.312;14.226;2023-02-28T03:31:54;13.43;;;5.80;;
75441;SDS011;64019;48.312;14.226;2023-02-28T03:34:34;12.53;;;6.07;;
75441;SDS011;64019;48.312;14.226;2023-02-28T03:37:12;12.33;;;6.17;;
75441;SDS011;64019;48.312;14.226;2023-02-28T03:39:45;16.03;;;6.53;;
75441;SDS011;64019;48.312;14.226;2023-02-28T03:42:18;9.30;;;5.23;;
75441;SDS011;64019;48.312;14.226;2023-02-28T03:44:57;15.10;;;6.17;;
75441;SDS011;64019;48.312;14.226;2023-02-28T03:47:31;14.30;;;6.40;;
75441;SDS011;64019;48.312;14.226;2023-02-28T03:50:14;13.73;;;6.47;;
75441;SDS011;64019;48.312;14.226;2023-02-28T03:53:03;16.23;;;6.93;;
75441;SDS011;64019;48.312;14.226;2023-02-28T03:55:36;15.87;;;6.43;;
75441;SDS011;64019;48.312;14.226;2023-02-28T04:01:13;14.60;;;6.13;;
75441;SDS011;64019;48.312;14.226;2023-02-28T04:03:44;10.83;;;5.60;;
75441;SDS011;64019;48.312;14.226;2023-02-28T04:06:15;11.93;;;6.20;;
75441;SDS011;64019;48.312;14.226;2023-02-28T04:08:42;14.63;;;6.83;;
75441;SDS011;64019;48.312;14.226;2023-02-28T04:11:18;18.17;;;6.77;;
75441;SDS011;64019;48.312;14.226;2023-02-28T04:13:57;13.67;;;6.77;;
75441;SDS011;64019;48.312;14.226;2023-02-28T04:16:22;13.83;;;6.70;;
75441;SDS011;64019;48.312;14.226;2023-02-28T04:18:48;14.13;;;6.73;;
75441;SDS011;64019;48.312;14.226;2023-02-28T04:21:14;12.87;;;6.40;;
75441;SDS011;64019;48.312;14.226;2023-02-28T04:23:39;18.80;;;7.20;;
75441;SDS011;64019;48.312;14.226;2023-02-28T04:26:05;11.87;;;6.20;;
75441;SDS011;64019;48.312;14.226;2023-02-28T04:28:31;11.40;;;5.87;;
75441;SDS011;64019;48.312;14.226;2023-02-28T04:30:58;13.80;;;6.57;;
75441;SDS011;64019;48.312;14.226;2023-02-28T04:33:25;13.97;;;6.43;;
75441;SDS011;64019;48.312;14.226;2023-02-28T04:36:01;13.77;;;6.93;;
75441;SDS011;64019;48.312;14.226;2023-02-28T04:38:29;13.70;;;6.70;;
75441;SDS011;64019;48.312;14.226;2023-02-28T04:40:56;11.00;;;5.63;;
75441;SDS011;64019;48.312;14.226;2023-02-28T04:43:23;15.10;;;6.03;;
75441;SDS011;64019;48.312;14.226;2023-02-28T04:45:48;12.80;;;6.43;;
75441;SDS011;64019;48.312;14.226;2023-02-28T04:48:14;17.63;;;6.70;;
75441;SDS011;64019;48.312;14.226;2023-02-28T04:50:40;12.40;;;5.40;;
75441;SDS011;64019;48.312;14.226;2023-02-28T04:53:05;14.47;;;6.10;;
75441;SDS011;64019;48.312;14.226;2023-02-28T04:55:31;10.83;;;6.00;;
75441;SDS011;64019;48.312;14.226;2023-02-28T04:57:57;8.47;;;5.53;;
75441;SDS011;64019;48.312;14.226;2023-02-28T05:00:22;12.50;;;6.10;;
75441;SDS011;64019;48.312;14.226;2023-02-28T05:02:48;15.90;;;6.23;;
75441;SDS011;64019;48.312;14.226;2023-02-28T05:05:14;11.63;;;6.43;;
75441;SDS011;64019;48.312;14.226;2023-02-28T05:07:43;13.10;;;6.40;;
75441;SDS011;64019;48.312;14.226;2023-02-28T05:10:09;11.57;;;5.53;;
75441;SDS011;64019;48.312;14.226;2023-02-28T05:12:36;15.33;;;7.17;;
75441;SDS011;64019;48.312;14.226;2023-02-28T05:15:02;13.17;;;6.17;;
75441;SDS011;64019;48.312;14.226;2023-02-28T05:17:29;10.97;;;6.07;;
75441;SDS011;64019;48.312;14.226;2023-02-28T05:19:55;13.40;;;6.83;;
75441;SDS011;64019;48.312;14.226;2023-02-28T05:22:21;14.87;;;6.40;;
75441;SDS011;64019;48.312;14.226;2023-02-28T05:24:47;13.13;;;6.27;;
75441;SDS011;64019;48.312;14.226;2023-02-28T05:27:13;14.23;;;6.00;;
75441;SDS011;64019;48.312;14.226;2023-02-28T05:29:38;12.77;;;6.07;;
75441;SDS011;64019;48.312;14.226;2023-02-28T05:32:10;15.37;;;6.27;;
75441;SDS011;64019;48.312;14.226;2023-02-28T05:34:37;15.50;;;6.53;;
75441;SDS011;64019;48.312;14.226;2023-02-28T05:37:03;13.03;;;6.10;;
75441;SDS011;64019;48.312;14.226;2023-02-28T05:39:29;16.00;;;6.33;;
75441;SDS011;64019;48.312;14.226;2023-02-28T05:41:55;14.10;;;6.87;;
75441;SDS011;64019;48.312;14.226;2023-02-28T05:44:21;13.83;;;6.70;;
75441;SDS011;64019;48.312;14.226;2023-02-28T05:46:46;18.03;;;6.20;;
75441;SDS011;64019;48.312;14.226;2023-02-28T05:49:12;19.33;;;6.43;;
75441;SDS011;64019;48.312;14.226;2023-02-28T05:51:38;13.93;;;5.80;;
75441;SDS011;64019;48.312;14.226;2023-02-28T05:54:05;11.93;;;5.87;;
75441;SDS011;64019;48.312;14.226;2023-02-28T05:56:31;12.07;;;6.50;;
75441;SDS011;64019;48.312;14.226;2023-02-28T05:58:59;14.70;;;6.33;;
75441;SDS011;64019;48.312;14.226;2023-02-28T06:01:35;13.73;;;6.03;;
75441;SDS011;64019;48.312;14.226;2023-02-28T06:04:04;13.90;;;6.50;;
75441;SDS011;64019;48.312;14.226;2023-02-28T06:06:31;14.30;;;6.43;;
75441;SDS011;64019;48.312;14.226;2023-02-28T06:08:59;13.60;;;6.43;;
75441;SDS011;64019;48.312;14.226;2023-02-28T06:11:25;13.73;;;5.90;;
75441;SDS011;64019;48.312;14.226;2023-02-28T06:13:58;10.87;;;5.90;;
75441;SDS011;64019;48.312;14.226;2023-02-28T06:16:26;16.17;;;5.60;;
75441;SDS011;64019;48.312;14.226;2023-02-28T06:18:53;13.33;;;5.87;;
75441;SDS011;64019;48.312;14.226;2023-02-28T06:21:21;13.13;;;6.23;;
75441;SDS011;64019;48.312;14.226;2023-02-28T06:23:47;16.77;;;6.33;;
75441;SDS011;64019;48.312;14.226;2023-02-28T06:26:13;10.80;;;6.17;;
75441;SDS011;64019;48.312;14.226;2023-02-28T06:28:38;11.23;;;6.20;;
75441;SDS011;64019;48.312;14.226;2023-02-28T06:31:05;16.93;;;6.77;;
75441;SDS011;64019;48.312;14.226;2023-02-28T06:33:32;12.13;;;5.80;;
75441;SDS011;64019;48.312;14.226;2023-02-28T06:35:58;16.87;;;6.63;;
75441;SDS011;64019;48.312;14.226;2023-02-28T06:38:24;11.20;;;6.00;;
75441;SDS011;64019;48.312;14.226;2023-02-28T06:40:53;14.00;;;5.73;;
75441;SDS011;64019;48.312;14.226;2023-02-28T06:43:19;13.10;;;6.20;;
75441;SDS011;64019;48.312;14.226;2023-02-28T06:45:45;18.50;;;6.73;;
75441;SDS011;64019;48.312;14.226;2023-02-28T06:48:14;13.23;;;5.97;;
75441;SDS011;64019;48.312;14.226;2023-02-28T06:50:45;11.53;;;5.73;;
75441;SDS011;64019;48.312;14.226;2023-02-28T06:53:11;16.90;;;6.13;;
75441;SDS011;64019;48.312;14.226;2023-02-28T06:55:38;15.33;;;6.07;;
75441;SDS011;64019;48.312;14.226;2023-02-28T06:58:04;12.70;;;6.33;;
75441;SDS011;64019;48.312;14.226;2023-02-28T07:00:39;12.27;;;5.80;;
75441;SDS011;64019;48.312;14.226;2023-02-28T07:03:09;14.97;;;5.77;;
75441;SDS011;64019;48.312;14.226;2023-02-28T07:05:35;11.07;;;5.87;;
75441;SDS011;64019;48.312;14.226;2023-02-28T07:08:02;11.07;;;6.20;;
75441;SDS011;64019;48.312;14.226;2023-02-28T07:10:28;11.37;;;5.90;;
75441;SDS011;64019;48.312;14.226;2023-02-28T07:12:54;11.83;;;5.90;;
75441;SDS011;64019;48.312;14.226;2023-02-28T07:15:19;12.57;;;6.40;;
75441;SDS011;64019;48.312;14.226;2023-02-28T07:17:45;9.97;;;5.87;;
75441;SDS011;64019;48.312;14.226;2023-02-28T07:20:11;16.83;;;6.53;;
75441;SDS011;64019;48.312;14.226;2023-02-28T07:22:37;14.73;;;6.60;;
75441;SDS011;64019;48.312;14.226;2023-02-28T07:25:03;14.47;;;5.63;;
75441;SDS011;64019;48.312;14.226;2023-02-28T07:27:29;14.90;;;6.67;;
75441;SDS011;64019;48.312;14.226;2023-02-28T07:29:55;14.47;;;6.17;;
75441;SDS011;64019;48.312;14.226;2023-02-28T07:32:21;12.40;;;6.10;;
75441;SDS011;64019;48.312;14.226;2023-02-28T07:34:46;14.90;;;5.83;;
75441;SDS011;64019;48.312;14.226;2023-02-28T07:37:13;12.40;;;7.00;;
75441;SDS011;64019;48.312;14.226;2023-02-28T07:39:39;14.07;;;6.87;;
75441;SDS011;64019;48.312;14.226;2023-02-28T07:42:07;16.27;;;6.03;;
75441;SDS011;64019;48.312;14.226;2023-02-28T07:44:36;11.40;;;6.17;;
75441;SDS011;64019;48.312;14.226;2023-02-28T07:47:09;13.60;;;5.93;;
75441;SDS011;64019;48.312;14.226;2023-02-28T07:49:35;14.43;;;6.10;;
75441;SDS011;64019;48.312;14.226;2023-02-28T07:52:02;12.13;;;5.70;;
75441;SDS011;64019;48.312;14.226;2023-02-28T07:54:29;17.10;;;7.30;;
75441;SDS011;64019;48.312;14.226;2023-02-28T07:56:55;13.13;;;6.13;;
75441;SDS011;64019;48.312;14.226;2023-02-28T07:59:20;12.90;;;5.73;;
75441;SDS011;64019;48.312;14.226;2023-02-28T08:01:46;12.67;;;5.97;;
75441;SDS011;64019;48.312;14.226;2023-02-28T08:04:14;13.97;;;5.40;;
75441;SDS011;64019;48.312;14.226;2023-02-28T08:06:40;13.33;;;5.90;;
75441;SDS011;64019;48.312;14.226;2023-02-28T08:09:05;13.40;;;6.57;;
75441;SDS011;64019;48.312;14.226;2023-02-28T08:11:31;14.50;;;6.17;;
75441;SDS011;64019;48.312;14.226;2023-02-28T08:13:57;15.10;;;6.73;;
75441;SDS011;64019;48.312;14.226;2023-02-28T08:16:22;12.03;;;6.80;;
75441;SDS011;64019;48.312;14.226;2023-02-28T08:18:49;12.50;;;6.30;;
75441;SDS011;64019;48.312;14.226;2023-02-28T08:21:15;13.17;;;6.43;;
75441;SDS011;64019;48.312;14.226;2023-02-28T08:30:20;11.07;;;5.93;;
75441;SDS011;64019;48.312;14.226;2023-02-28T08:32:46;15.37;;;6.40;;
75441;SDS011;64019;48.312;14.226;2023-02-28T08:35:12;14.20;;;7.00;;
75441;SDS011;64019;48.312;14.226;2023-02-28T08:37:37;13.40;;;7.00;;
75441;SDS011;64019;48.312;14.226;2023-02-28T08:40:03;11.00;;;6.33;;
75441;SDS011;64019;48.312;14.226;2023-02-28T08:42:29;15.43;;;7.57;;
75441;SDS011;64019;48.312;14.226;2023-02-28T08:44:56;14.80;;;6.43;;
75441;SDS011;64019;48.312;14.226;2023-02-28T08:47:22;14.50;;;7.37;;
75441;SDS011;64019;48.312;14.226;2023-02-28T08:49:48;12.37;;;6.77;;
75441;SDS011;64019;48.312;14.226;2023-02-28T08:52:14;14.83;;;6.53;;
75441;SDS011;64019;48.312;14.226;2023-02-28T08:54:39;12.77;;;6.83;;
75441;SDS011;64019;48.312;14.226;2023-02-28T08:57:05;17.30;;;7.00;;
75441;SDS011;64019;48.312;14.226;2023-02-28T08:59:31;13.17;;;6.77;;
75441;SDS011;64019;48.312;14.226;2023-02-28T09:01:57;14.30;;;6.97;;
75441;SDS011;64019;48.312;14.226;2023-02-28T09:04:23;16.53;;;6.77;;
75441;SDS011;64019;48.312;14.226;2023-02-28T09:06:48;11.73;;;6.40;;
75441;SDS011;64019;48.312;14.226;2023-02-28T09:09:14;17.10;;;6.73;;
75441;SDS011;64019;48.312;14.226;2023-02-28T09:11:41;13.73;;;7.40;;
75441;SDS011;64019;48.312;14.226;2023-02-28T09:14:07;14.13;;;7.13;;
75441;SDS011;64019;48.312;14.226;2023-02-28T09:16:33;16.67;;;6.80;;
75441;SDS011;64019;48.312;14.226;2023-02-28T09:18:59;12.37;;;6.80;;
75441;SDS011;64019;48.312;14.226;2023-02-28T09:21:25;13.57;;;7.43;;
75441;SDS011;64019;48.312;14.226;2023-02-28T09:23:51;14.77;;;6.33;;
75441;SDS011;64019;48.312;14.226;2023-02-28T09:26:24;13.80;;;6.53;;
75441;SDS011;64019;48.312;14.226;2023-02-28T09:28:51;13.33;;;6.83;;
75441;SDS011;64019;48.312;14.226;2023-02-28T09:31:19;11.87;;;6.70;;
75441;SDS011;64019;48.312;14.226;2023-02-28T09:33:50;15.20;;;7.07;;
75441;SDS011;64019;48.312;14.226;2023-02-28T09:36:18;16.30;;;6.87;;
75441;SDS011;64019;48.312;14.226;2023-02-28T09:38:47;15.30;;;7.93;;
75441;SDS011;64019;48.312;14.226;2023-02-28T09:41:19;13.63;;;6.90;;
75441;SDS011;64019;48.312;14.226;2023-02-28T09:43:49;15.43;;;6.77;;
75441;SDS011;64019;48.312;14.226;2023-02-28T09:46:28;13.63;;;6.73;;
75441;SDS011;64019;48.312;14.226;2023-02-28T09:49:05;17.13;;;6.80;;
75441;SDS011;64019;48.312;14.226;2023-02-28T09:51:40;13.63;;;6.77;;
75441;SDS011;64019;48.312;14.226;2023-02-28T09:54:09;13.73;;;6.97;;
75441;SDS011;64019;48.312;14.226;2023-02-28T09:56:45;15.77;;;7.97;;
75441;SDS011;64019;48.312;14.226;2023-02-28T09:59:31;16.33;;;7.00;;
75441;SDS011;64019;48.312;14.226;2023-02-28T10:04:52;16.30;;;7.30;;
75441;SDS011;64019;48.312;14.226;2023-02-28T10:07:46;11.97;;;6.33;;
75441;SDS011;64019;48.312;14.226;2023-02-28T10:11:07;11.53;;;6.67;;
75441;SDS011;64019;48.312;14.226;2023-02-28T10:15:59;16.87;;;7.03;;
75441;SDS011;64019;48.312;14.226;2023-02-28T10:18:32;13.63;;;7.43;;
75441;SDS011;64019;48.312;14.226;2023-02-28T10:21:56;17.17;;;6.53;;
75441;SDS011;64019;48.312;14.226;2023-02-28T10:27:19;14.87;;;7.03;;
75441;SDS011;64019;48.312;14.226;2023-02-28T10:29:49;14.37;;;7.00;;
75441;SDS011;64019;48.312;14.226;2023-02-28T10:37:24;15.40;;;6.90;;
75441;SDS011;64019;48.312;14.226;2023-02-28T10:39:50;15.00;;;7.27;;
75441;SDS011;64019;48.312;14.226;2023-02-28T10:42:23;11.73;;;7.10;;
75441;SDS011;64019;48.312;14.226;2023-02-28T10:58:24;13.27;;;7.13;;
75441;SDS011;64019;48.312;14.226;2023-02-28T11:00:52;14.27;;;7.30;;
75441;SDS011;64019;48.312;14.226;2023-02-28T11:03:25;11.87;;;7.23;;
75441;SDS011;64019;48.312;14.226;2023-02-28T11:05:59;14.63;;;7.37;;
75441;SDS011;64019;48.312;14.226;2023-02-28T11:08:34;14.30;;;7.07;;
75441;SDS011;64019;48.312;14.226;2023-02-28T11:11:08;12.07;;;6.80;;
75441;SDS011;64019;48.312;14.226;2023-02-28T11:13:35;12.13;;;6.60;;
75441;SDS011;64019;48.312;14.226;2023-02-28T11:16:04;13.57;;;7.83;;
75441;SDS011;64019;48.312;14.226;2023-02-28T11:18:54;13.80;;;6.23;;
75441;SDS011;64019;48.312;14.226;2023-02-28T11:24:04;16.30;;;7.17;;
75441;SDS011;64019;48.312;14.226;2023-02-28T11:26:35;12.13;;;6.77;;
75441;SDS011;64019;48.312;14.226;2023-02-28T11:29:10;13.80;;;7.23;;
75441;SDS011;64019;48.312;14.226;2023-02-28T11:31:41;13.80;;;6.83;;
75441;SDS011;64019;48.312;14.226;2023-02-28T11:34:23;14.40;;;6.53;;
75441;SDS011;64019;48.312;14.226;2023-02-28T11:36:52;12.00;;;5.97;;
75441;SDS011;64019;48.312;14.226;2023-02-28T11:39:22;14.77;;;6.87;;
75441;SDS011;64019;48.312;14.226;2023-02-28T12:26:12;15.03;;;6.77;;
75441;SDS011;64019;48.312;14.226;2023-02-28T12:28:51;11.53;;;6.40;;
75441;SDS011;64019;48.312;14.226;2023-02-28T12:31:24;13.93;;;6.87;;
75441;SDS011;64019;48.312;14.226;2023-02-28T12:33:53;13.70;;;6.53;;
75441;SDS011;64019;48.312;14.226;2023-02-28T12:36:24;15.80;;;7.37;;
75441;SDS011;64019;48.312;14.226;2023-02-28T12:41:35;11.90;;;6.27;;
75441;SDS011;64019;48.312;14.226;2023-02-28T12:44:09;15.17;;;6.50;;
75441;SDS011;64019;48.312;14.226;2023-02-28T12:46:50;16.27;;;7.30;;
75441;SDS011;64019;48.312;14.226;2023-02-28T12:52:15;13.93;;;6.30;;
75441;SDS011;64019;48.312;14.226;2023-02-28T12:54:49;14.23;;;6.63;;
75441;SDS011;64019;48.312;14.226;2023-02-28T12:57:34;15.90;;;7.40;;
75441;SDS011;64019;48.312;14.226;2023-02-28T13:00:13;12.87;;;7.30;;
75441;SDS011;64019;48.312;14.226;2023-02-28T13:09:10;12.50;;;7.00;;
75441;SDS011;64019;48.312;14.226;2023-02-28T13:16:56;11.77;;;6.83;;
75441;SDS011;64019;48.312;14.226;2023-02-28T13:19:46;11.87;;;7.00;;
75441;SDS011;64019;48.312;14.226;2023-02-28T13:33:27;14.73;;;7.77;;
75441;SDS011;64019;48.312;14.226;2023-02-28T13:44:02;13.80;;;7.70;;
75441;SDS011;64019;48.312;14.226;2023-02-28T13:46:27;16.00;;;7.90;;
75441;SDS011;64019;48.312;14.226;2023-02-28T13:48:53;17.87;;;8.10;;
75441;SDS011;64019;48.312;14.226;2023-02-28T13:51:27;14.03;;;7.80;;
75441;SDS011;64019;48.312;14.226;2023-02-28T13:54:29;15.10;;;7.57;;
75441;SDS011;64019;48.312;14.226;2023-02-28T13:57:25;13.83;;;7.20;;
75441;SDS011;64019;48.312;14.226;2023-02-28T14:00:07;12.53;;;6.70;;
75441;SDS011;64019;48.312;14.226;2023-02-28T14:05:31;15.60;;;6.73;;
75441;SDS011;64019;48.312;14.226;2023-02-28T14:07:59;13.23;;;7.03;;
75441;SDS011;64019;48.312;14.226;2023-02-28T14:10:36;12.87;;;7.20;;
75441;SDS011;64019;48.312;14.226;2023-02-28T14:16:13;13.93;;;6.77;;
75441;SDS011;64019;48.312;14.226;2023-02-28T14:38:52;13.30;;;7.33;;
75441;SDS011;64019;48.312;14.226;2023-02-28T14:41:22;14.00;;;6.83;;
75441;SDS011;64019;48.312;14.226;2023-02-28T14:43:56;12.30;;;7.00;;
75441;SDS011;64019;48.312;14.226;2023-02-28T14:46:26;13.20;;;7.30;;
75441;SDS011;64019;48.312;14.226;2023-02-28T14:49:00;11.27;;;6.70;;
75441;SDS011;64019;48.312;14.226;2023-02-28T14:51:26;13.27;;;6.80;;
75441;SDS011;64019;48.312;14.226;2023-02-28T14:53:56;13.00;;;6.80;;
75441;SDS011;64019;48.312;14.226;2023-02-28T14:56:26;14.50;;;8.83;;
75441;SDS011;64019;48.312;14.226;2023-02-28T14:59:00;16.47;;;7.90;;
75441;SDS011;64019;48.312;14.226;2023-02-28T15:01:25;15.07;;;7.70;;
75441;SDS011;64019;48.312;14.226;2023-02-28T15:04:02;11.20;;;7.07;;
75441;SDS011;64019;48.312;14.226;2023-02-28T15:06:30;15.93;;;7.80;;
75441;SDS011;64019;48.312;14.226;2023-02-28T15:15:52;14.30;;;7.63;;
75441;SDS011;64019;48.312;14.226;2023-02-28T15:20:58;19.27;;;9.10;;
75441;SDS011;64019;48.312;14.226;2023-02-28T15:23:48;16.73;;;9.17;;
75441;SDS011;64019;48.312;14.226;2023-02-28T15:26:18;15.63;;;8.27;;
75441;SDS011;64019;48.312;14.226;2023-02-28T15:28:46;18.60;;;9.27;;
75441;SDS011;64019;48.312;14.226;2023-02-28T15:31:18;15.17;;;8.13;;
75441;SDS011;64019;48.312;14.226;2023-02-28T15:33:53;16.13;;;8.23;;
75441;SDS011;64019;48.312;14.226;2023-02-28T15:36:26;15.07;;;8.87;;
75441;SDS011;64019;48.312;14.226;2023-02-28T15:38:56;21.77;;;9.00;;
75441;SDS011;64019;48.312;14.226;2023-02-28T15:46:45;15.70;;;8.73;;
75441;SDS011;64019;48.312;14.226;2023-02-28T15:49:23;17.53;;;9.30;;
75441;SDS011;64019;48.312;14.226;2023-02-28T15:51:50;19.87;;;9.33;;
75441;SDS011;64019;48.312;14.226;2023-02-28T15:54:29;19.20;;;9.47;;
75441;SDS011;64019;48.312;14.226;2023-02-28T15:56:58;15.73;;;8.13;;
75441;SDS011;64019;48.312;14.226;2023-02-28T15:59:33;15.43;;;8.97;;
75441;SDS011;64019;48.312;14.226;2023-02-28T16:04:54;18.57;;;9.30;;
75441;SDS011;64019;48.312;14.226;2023-02-28T16:07:36;21.60;;;10.33;;
75441;SDS011;64019;48.312;14.226;2023-02-28T16:10:03;21.43;;;10.77;;
75441;SDS011;64019;48.312;14.226;2023-02-28T16:12:31;21.03;;;10.43;;
75441;SDS011;64019;48.312;14.226;2023-02-28T16:15:00;19.47;;;10.57;;
75441;SDS011;64019;48.312;14.226;2023-02-28T16:17:31;26.00;;;10.43;;
75441;SDS011;64019;48.312;14.226;2023-02-28T16:20:00;19.07;;;10.53;;
75441;SDS011;64019;48.312;14.226;2023-02-28T16:22:25;18.67;;;10.13;;
75441;SDS011;64019;48.312;14.226;2023-02-28T16:24:51;22.80;;;11.20;;
75441;SDS011;64019;48.312;14.226;2023-02-28T16:27:24;21.23;;;11.03;;
75441;SDS011;64019;48.312;14.226;2023-02-28T16:30:01;22.97;;;11.03;;
75441;SDS011;64019;48.312;14.226;2023-02-28T16:32:34;20.50;;;10.27;;
75441;SDS011;64019;48.312;14.226;2023-02-28T16:35:01;24.33;;;11.03;;
75441;SDS011;64019;48.312;14.226;2023-02-28T16:37:27;19.67;;;9.70;;
75441;SDS011;64019;48.312;14.226;2023-02-28T16:39:53;23.60;;;10.77;;
75441;SDS011;64019;48.312;14.226;2023-02-28T16:42:20;19.07;;;9.87;;
75441;SDS011;64019;48.312;14.226;2023-02-28T16:44:53;22.33;;;11.40;;
75441;SDS011;64019;48.312;14.226;2023-02-28T16:47:20;23.00;;;10.10;;
75441;SDS011;64019;48.312;14.226;2023-02-28T16:49:46;20.90;;;11.07;;
75441;SDS011;64019;48.312;14.226;2023-02-28T16:52:13;20.13;;;10.20;;
75441;SDS011;64019;48.312;14.226;2023-02-28T16:54:40;20.53;;;10.20;;
75441;SDS011;64019;48.312;14.226;2023-02-28T16:57:13;24.37;;;10.93;;
75441;SDS011;64019;48.312;14.226;2023-02-28T16:59:46;21.73;;;10.20;;
75441;SDS011;64019;48.312;14.226;2023-02-28T17:02:16;18.90;;;9.90;;
75441;SDS011;64019;48.312;14.226;2023-02-28T17:04:44;19.83;;;9.60;;
75441;SDS011;64019;48.312;14.226;2023-02-28T17:07:13;19.93;;;10.63;;
75441;SDS011;64019;48.312;14.226;2023-02-28T17:09:41;19.87;;;10.73;;
75441;SDS011;64019;48.312;14.226;2023-02-28T17:12:08;23.37;;;10.67;;
75441;SDS011;64019;48.312;14.226;2023-02-28T17:14:34;22.43;;;11.57;;
75441;SDS011;64019;48.312;14.226;2023-02-28T17:17:00;22.27;;;11.17;;
75441;SDS011;64019;48.312;14.226;2023-02-28T17:19:25;21.33;;;11.30;;
75441;SDS011;64019;48.312;14.226;2023-02-28T17:21:53;20.80;;;10.57;;
75441;SDS011;64019;48.312;14.226;2023-02-28T17:24:18;23.50;;;10.77;;
75441;SDS011;64019;48.312;14.226;2023-02-28T17:26:44;25.17;;;11.17;;
75441;SDS011;64019;48.312;14.226;2023-02-28T17:29:19;18.80;;;10.40;;
75441;SDS011;64019;48.312;14.226;2023-02-28T17:31:46;20.77;;;10.03;;
75441;SDS011;64019;48.312;14.226;2023-02-28T17:34:13;24.10;;;10.93;;
75441;SDS011;64019;48.312;14.226;2023-02-28T17:36:45;20.70;;;10.37;;
75441;SDS011;64019;48.312;14.226;2023-02-28T17:39:12;22.60;;;10.50;;
75441;SDS011;64019;48.312;14.226;2023-02-28T17:41:42;23.27;;;10.70;;
75441;SDS011;64019;48.312;14.226;2023-02-28T17:44:08;21.17;;;10.80;;
75441;SDS011;64019;48.312;14.226;2023-02-28T17:46:34;25.23;;;10.57;;
75441;SDS011;64019;48.312;14.226;2023-02-28T17:49:01;21.20;;;10.73;;